Terminal Aerodrome Forecast
Issued by NWS

Home | Current Version | Previous Version | Text Only | Print | Product List | Glossary On
Versions: 1 2 3 4 5 6 7 8 9 10 11 12 13 14 15 16 17 18 19 20
000
FTUS45 KBOU 182335 CCA
TAFAPA
TAF COR
KAPA 182335Z 1900/1924 22015KT P6SM VCSH SCT080 BKN120
     FM190100 22008KT P6SM FEW080 BKN140
     FM190500 19008KT P6SM FEW080 SCT140
     FM191400 VRB05KT P6SM SCT140
     FM191900 28007KT P6SM FEW080 SCT140=

USA.gov is the U.S. government's official web portal to all federal, state and local government web resources and services.